Time;durP1;ratioP1;P1;durP2;ratioP2;P2;SDS_P1;SDS_P2;PMS_P1;PMS_P2;Temp;Humidity;BMP_temperature;BMP_pressure;BME280_temperature;BME280_humidity;BME280_pressure;Samples;Min_cycle;Max_cycle;Signal;HPM_P1;HPM_P2
2022/01/24 00:00:15;;;;;;;;;;;;;;;22.37;15.59;98434.47;5036576;28;986;-73
2022/01/24 00:02:43;;;;;;;;;;;;;;;21.79;16.48;98440.56;5036562;28;938;-73
2022/01/24 00:05:09;;;;;;;;;;;;;;;22.12;16.10;98446.34;5053805;28;983;-73
2022/01/24 00:07:35;;;;;;;;;;;;;;;22.96;15.47;98449.72;5054174;28;1910;-73
2022/01/24 00:10:04;;;;;;;;;;;;;;;22.48;15.78;98451.25;5053754;28;948;-73
2022/01/24 00:17:33;;;;;;;;;;;;;;;22.75;15.55;98454.66;5054095;28;945;-74
2022/01/24 00:28:11;;;;;;;;;;;;;;;23.01;15.33;98452.03;5053455;28;1910;-74
2022/01/24 00:30:37;;;;;;;;;;;;;;;23.01;15.17;98449.19;5037217;28;1181;-73
2022/01/24 00:33:02;;;;;;;;;;;;;;;22.01;15.99;98451.44;5053560;28;981;-74
2022/01/24 00:35:28;;;;;;;;;;;;;;;21.83;16.41;98452.63;5049743;28;1128;-74
2022/01/24 00:37:58;;;;;;;;;;;;;;;22.53;15.57;98459.22;5035900;28;1105;-73
2022/01/24 00:40:26;;;;;;;;;;;;;;;23.21;15.05;98449.91;5049758;28;946;-74
2022/01/24 00:42:55;;;;;;;;;;;;;;;22.58;15.63;98447.34;5035956;28;1046;-74
2022/01/24 00:55:41;;;;;;;;;;;;;;;22.48;15.46;98469.03;5035400;28;922;-74
2022/01/24 00:58:06;;;;;;;;;;;;;;;22.38;15.85;98464.41;5041489;28;1194;-73
2022/01/24 01:00:32;;;;;;;;;;;;;;;22.15;16.04;98468.16;5075927;28;903;-74
2022/01/24 01:02:57;;;;;;;;;;;;;;;23.06;15.19;98462.84;5075097;28;1002;-73
2022/01/24 01:18:44;;;;;;;;;;;;;;;22.36;15.69;98479.03;5078596;28;968;-73
2022/01/24 01:21:11;;;;;;;;;;;;;;;21.72;16.50;98480.34;5079092;28;1131;-74
2022/01/24 01:23:39;;;;;;;;;;;;;;;22.65;15.37;98472.72;5078551;28;887;-74
2022/01/24 01:26:10;;;;;;;;;;;;;;;23.19;14.92;98486.44;5079328;28;1031;-74
2022/01/24 01:28:38;;;;;;;;;;;;;;;22.73;15.48;98479.03;5078685;28;1974;-74
2022/01/24 01:31:09;;;;;;;;;;;;;;;22.38;15.68;98480.63;5060043;28;1015;-74
2022/01/24 01:36:45;;;;;;;;;;;;;;;22.75;15.26;98487.91;5078928;28;1116;-73
2022/01/24 01:58:03;;;;;;;;;;;;;;;22.24;15.88;98493.91;5078420;28;1137;-73
2022/01/24 02:00:29;;;;;;;;;;;;;;;22.55;15.68;98485.91;5078293;28;936;-73
2022/01/24 02:02:54;;;;;;;;;;;;;;;23.08;15.25;98488.75;5078259;28;875;-74
2022/01/24 02:05:20;;;;;;;;;;;;;;;22.83;15.33;98501.47;5078306;28;896;-73
2022/01/24 02:07:49;;;;;;;;;;;;;;;22.36;15.68;98504.56;5075391;28;1983;-74
2022/01/24 02:10:15;;;;;;;;;;;;;;;22.31;15.94;98505.06;5075771;28;962;-74
2022/01/24 02:12:41;;;;;;;;;;;;;;;22.97;15.10;98502.41;5075842;28;1029;-75
2022/01/24 02:15:06;;;;;;;;;;;;;;;23.24;14.96;98508.59;5058894;28;1312;-73
2022/01/24 02:18:03;;;;;;;;;;;;;;;22.59;15.64;98500.03;5075526;28;963;-73
2022/01/24 02:25:48;;;;;;;;;;;;;;;22.85;15.45;98521.69;5075408;28;1110;-73
2022/01/24 02:28:16;;;;;;;;;;;;;;;22.90;15.21;98511.91;5058347;28;1930;-74
2022/01/24 02:31:24;;;;;;;;;;;;;;;22.51;15.76;98507.88;5035234;28;927;-74
2022/01/24 02:33:45;;;;;;;;;;;;;;;22.36;15.74;98507.38;5018532;28;1468;-73
2022/01/24 02:36:11;;;;;;;;;;;;;;;22.78;15.24;98516.16;5019580;28;1248;-74
2022/01/24 02:49:16;;;;;;;;;;;;;;;22.41;15.59;98523.09;4956979;29;1914;-74
2022/01/24 02:51:46;;;;;;;;;;;;;;;23.10;15.25;98526.00;4956717;29;981;-74
2022/01/24 02:54:18;;;;;;;;;;;;;;;22.58;15.58;98526.75;4957223;29;936;-74
2022/01/24 02:56:43;;;;;;;;;;;;;;;21.75;16.25;98526.81;4956844;29;940;-74
2022/01/24 02:59:09;;;;;;;;;;;;;;;21.52;16.63;98533.31;4956583;28;1057;-73
2022/01/24 03:01:34;;;;;;;;;;;;;;;22.14;16.04;98533.81;4974040;28;1009;-74
2022/01/24 03:04:00;;;;;;;;;;;;;;;22.24;15.93;98539.25;4995381;28;1074;-74
2022/01/24 03:06:25;;;;;;;;;;;;;;;21.62;16.47;98540.84;4995496;28;984;-74
2022/01/24 03:08:51;;;;;;;;;;;;;;;22.27;15.89;98538.34;4994860;28;1910;-74
2022/01/24 03:11:16;;;;;;;;;;;;;;;23.11;15.02;98538.97;5002834;28;1007;-73
2022/01/24 03:13:42;;;;;;;;;;;;;;;21.93;15.88;98537.84;5034193;28;913;-74
2022/01/24 03:16:08;;;;;;;;;;;;;;;21.91;16.24;98537.44;5035028;28;1067;-74
2022/01/24 03:18:34;;;;;;;;;;;;;;;22.17;15.62;98550.72;5074279;28;1062;-73
2022/01/24 03:20:59;;;;;;;;;;;;;;;22.37;15.58;98556.38;5075737;28;960;-74
2022/01/24 03:23:25;;;;;;;;;;;;;;;23.35;14.56;98550.94;5075477;28;983;-75
2022/01/24 03:25:50;;;;;;;;;;;;;;;22.61;15.16;98562.78;5077067;28;899;-73
2022/01/24 03:28:20;;;;;;;;;;;;;;;22.01;15.99;98570.44;5076565;28;1964;-74
2022/01/24 03:30:47;;;;;;;;;;;;;;;22.19;15.71;98578.66;5076342;28;905;-74
2022/01/24 03:33:12;;;;;;;;;;;;;;;22.94;15.20;98574.22;5076097;28;938;-74
2022/01/24 03:35:40;;;;;;;;;;;;;;;22.64;15.28;98578.94;5076776;28;895;-73
2022/01/24 03:38:05;;;;;;;;;;;;;;;22.31;15.75;98590.13;5076575;28;951;-74
2022/01/24 03:40:31;;;;;;;;;;;;;;;22.08;16.05;98581.66;5076369;28;923;-74
2022/01/24 03:42:56;;;;;;;;;;;;;;;22.70;15.36;98582.84;5076520;28;866;-74
2022/01/24 03:50:49;;;;;;;;;;;;;;;21.94;16.23;98581.94;5034232;28;1040;-74
2022/01/24 03:53:14;;;;;;;;;;;;;;;22.12;15.93;98590.91;5033779;28;1025;-74
2022/01/24 03:55:39;;;;;;;;;;;;;;;22.39;15.72;98607.00;5034098;28;989;-74
2022/01/24 03:58:05;;;;;;;;;;;;;;;22.13;15.97;98606.69;5033633;28;1361;-74
2022/01/24 04:00:30;;;;;;;;;;;;;;;22.73;15.47;98603.84;5033711;28;1000;-75
2022/01/24 04:02:56;;;;;;;;;;;;;;;23.23;14.83;98602.75;5033819;28;1094;-73
2022/01/24 04:05:22;;;;;;;;;;;;;;;22.64;15.11;98618.63;5033660;28;1099;-74
2022/01/24 04:07:47;;;;;;;;;;;;;;;22.29;15.74;98615.28;5034045;28;1902;-73
2022/01/24 04:10:17;;;;;;;;;;;;;;;22.16;15.99;98610.69;5016980;28;973;-73
2022/01/24 04:12:43;;;;;;;;;;;;;;;23.23;14.63;98609.22;5033946;28;1088;-75
2022/01/24 04:18:11;;;;;;;;;;;;;;;21.79;16.04;98602.00;5033531;28;1166;-74
2022/01/24 04:23:21;;;;;;;;;;;;;;;22.98;14.83;98609.00;5071913;28;1105;-73
2022/01/24 04:25:46;;;;;;;;;;;;;;;22.99;14.70;98614.22;5075894;28;969;-73
2022/01/24 04:28:12;;;;;;;;;;;;;;;22.41;15.70;98618.69;5075584;28;1968;-74
2022/01/24 04:30:38;;;;;;;;;;;;;;;22.26;15.47;98613.31;5075881;28;952;-74
2022/01/24 04:33:03;;;;;;;;;;;;;;;22.44;15.22;98615.00;5075913;28;855;-73
2022/01/24 04:35:28;;;;;;;;;;;;;;;23.26;14.66;98618.88;5075899;28;976;-73
2022/01/24 04:37:54;;;;;;;;;;;;;;;23.29;14.57;98621.66;5075707;28;916;-73
2022/01/24 04:40:20;;;;;;;;;;;;;;;22.42;15.47;98634.47;5075534;28;860;-74
2022/01/24 04:42:51;;;;;;;;;;;;;;;22.38;15.55;98628.84;5077960;28;949;-74
2022/01/24 04:53:31;;;;;;;;;;;;;;;22.36;15.47;98642.69;5079269;28;920;-74
2022/01/24 04:55:54;;;;;;;;;;;;;;;22.30;15.47;98650.91;5079619;28;923;-74
2022/01/24 04:58:20;;;;;;;;;;;;;;;22.63;15.31;98656.72;5079233;28;1016;-74
2022/01/24 05:00:45;;;;;;;;;;;;;;;23.04;14.95;98658.31;5079700;28;930;-73
2022/01/24 05:03:11;;;;;;;;;;;;;;;22.66;15.30;98661.53;5076624;28;1331;-74
2022/01/24 05:05:36;;;;;;;;;;;;;;;22.56;15.42;98659.72;5076702;28;971;-73
2022/01/24 05:08:05;;;;;;;;;;;;;;;21.77;15.79;98669.63;5076793;28;1979;-73
2022/01/24 05:10:52;;;;;;;;;;;;;;;22.02;15.98;98662.72;5060393;28;993;-73
2022/01/24 05:21:41;;;;;;;;;;;;;;;21.87;16.15;98679.19;5076620;28;964;-74
2022/01/24 05:24:07;;;;;;;;;;;;;;;22.31;15.55;98680.84;5076318;28;878;-73
2022/01/24 05:26:32;;;;;;;;;;;;;;;21.79;15.77;98678.50;5076295;28;955;-73
2022/01/24 05:28:58;;;;;;;;;;;;;;;22.49;15.50;98685.38;5076009;28;1984;-74
2022/01/24 05:31:23;;;;;;;;;;;;;;;23.20;14.83;98681.06;5076409;28;1078;-73
2022/01/24 05:33:49;;;;;;;;;;;;;;;22.49;15.19;98685.38;5075969;28;931;-74
2022/01/24 05:36:14;;;;;;;;;;;;;;;22.08;15.83;98678.81;5076723;28;1211;-74
2022/01/24 05:38:40;;;;;;;;;;;;;;;22.32;15.76;98699.44;5075960;28;955;-74
2022/01/24 05:41:05;;;;;;;;;;;;;;;23.18;14.61;98697.75;5076224;28;951;-73
2022/01/24 05:43:31;;;;;;;;;;;;;;;22.70;15.01;98698.34;5071910;28;973;-74
2022/01/24 05:45:56;;;;;;;;;;;;;;;21.72;16.00;98706.94;5056675;28;988;-73
2022/01/24 05:48:22;;;;;;;;;;;;;;;22.22;15.76;98711.78;5055917;28;1975;-74
2022/01/24 05:50:47;;;;;;;;;;;;;;;21.57;15.95;98717.69;5056113;28;1114;-74
2022/01/24 05:53:13;;;;;;;;;;;;;;;22.20;15.45;98731.25;5055096;28;950;-74
2022/01/24 05:55:38;;;;;;;;;;;;;;;22.22;15.72;98728.78;5055500;28;1027;-74
2022/01/24 05:58:03;;;;;;;;;;;;;;;22.07;15.75;98711.22;5055802;28;1045;-73
2022/01/24 06:00:29;;;;;;;;;;;;;;;22.09;15.60;98720.09;5056136;28;925;-74
2022/01/24 06:02:54;;;;;;;;;;;;;;;22.24;15.60;98725.53;5056004;28;1123;-74
2022/01/24 06:05:20;;;;;;;;;;;;;;;22.30;15.28;98730.28;5055873;28;950;-74
2022/01/24 06:07:47;;;;;;;;;;;;;;;22.34;15.28;98731.03;5055890;28;1010;-75
2022/01/24 06:10:12;;;;;;;;;;;;;;;22.18;15.63;98733.75;5055638;28;1138;-74
2022/01/24 06:12:38;;;;;;;;;;;;;;;22.80;14.82;98725.72;5041670;28;1265;-73
2022/01/24 06:15:03;;;;;;;;;;;;;;;23.14;14.56;98736.78;5037087;28;1019;-74
2022/01/24 06:17:29;;;;;;;;;;;;;;;22.51;15.17;98740.44;5057693;28;1117;-74
2022/01/24 06:19:54;;;;;;;;;;;;;;;22.21;15.31;98743.41;5057768;28;1095;-74
2022/01/24 06:22:20;;;;;;;;;;;;;;;22.22;15.50;98750.66;5058039;28;904;-74
2022/01/24 06:24:46;;;;;;;;;;;;;;;22.42;15.72;98747.91;5057815;28;938;-74
2022/01/24 06:27:11;;;;;;;;;;;;;;;22.24;15.89;98757.53;5058099;28;1097;-73
2022/01/24 06:29:36;;;;;;;;;;;;;;;23.08;14.74;98762.03;5057928;28;1922;-74
2022/01/24 06:32:02;;;;;;;;;;;;;;;22.91;15.03;98763.22;5057752;28;925;-74
2022/01/24 06:34:27;;;;;;;;;;;;;;;22.42;15.59;98765.72;5072735;28;1241;-74
2022/01/24 06:36:53;;;;;;;;;;;;;;;22.00;16.09;98761.53;5058050;28;887;-75
2022/01/24 06:39:18;;;;;;;;;;;;;;;22.35;15.29;98769.47;5057826;28;972;-74
2022/01/24 06:41:51;;;;;;;;;;;;;;;22.21;15.68;98768.91;5057712;28;1148;-74
2022/01/24 06:44:17;;;;;;;;;;;;;;;22.78;15.19;98771.53;5057293;28;991;-74
2022/01/24 06:46:44;;;;;;;;;;;;;;;23.17;14.61;98774.84;5055052;28;941;-74
2022/01/24 06:49:10;;;;;;;;;;;;;;;22.53;15.18;98786.16;5034649;28;1902;-74
2022/01/24 06:51:35;;;;;;;;;;;;;;;22.31;15.55;98777.22;5035007;28;1062;-75
2022/01/24 06:54:01;;;;;;;;;;;;;;;22.64;15.26;98774.66;5035024;28;1054;-74
2022/01/24 06:56:26;;;;;;;;;;;;;;;23.14;14.72;98770.84;5035272;28;1011;-73
2022/01/24 06:58:52;;;;;;;;;;;;;;;22.12;15.38;98772.28;5034413;28;1318;-73
2022/01/24 07:01:17;;;;;;;;;;;;;;;22.03;15.65;98772.03;5035068;28;962;-74
2022/01/24 07:03:42;;;;;;;;;;;;;;;22.53;15.52;98771.19;5034333;28;996;-74
2022/01/24 07:06:08;;;;;;;;;;;;;;;23.32;14.49;98776.97;5034691;28;953;-74
2022/01/24 07:08:33;;;;;;;;;;;;;;;22.66;15.08;98775.00;5034281;28;1910;-73
2022/01/24 07:10:59;;;;;;;;;;;;;;;22.22;15.32;98785.47;5034969;28;970;-74
2022/01/24 07:13:24;;;;;;;;;;;;;;;22.39;15.26;98777.13;5034164;28;1026;-74
2022/01/24 07:15:54;;;;;;;;;;;;;;;23.03;14.96;98781.63;5034643;28;929;-74
2022/01/24 07:20:54;;;;;;;;;;;;;;;22.42;15.46;98796.09;5034368;28;1035;-74
2022/01/24 07:23:19;;;;;;;;;;;;;;;21.76;16.10;98792.69;5034495;28;1150;-73
2022/01/24 07:25:45;;;;;;;;;;;;;;;22.86;15.04;98798.53;5038034;28;914;-74
2022/01/24 07:28:11;;;;;;;;;;;;;;;23.21;14.65;98807.63;5056811;28;1973;-73
2022/01/24 07:30:36;;;;;;;;;;;;;;;22.47;15.18;98807.75;5053733;28;1012;-74
2022/01/24 07:33:01;;;;;;;;;;;;;;;22.06;15.40;98811.63;5054250;28;1042;-74
2022/01/24 07:35:27;;;;;;;;;;;;;;;22.05;15.74;98809.22;5054158;28;887;-74
2022/01/24 07:37:52;;;;;;;;;;;;;;;21.67;15.73;98806.56;5054201;28;963;-74
2022/01/24 07:40:18;;;;;;;;;;;;;;;21.51;16.12;98812.03;5054698;28;1090;-74
2022/01/24 07:43:10;;;;;;;;;;;;;;;22.20;15.48;98807.81;5054130;28;1086;-74
2022/01/24 07:45:35;;;;;;;;;;;;;;;21.55;16.14;98815.63;5053930;28;925;-74
2022/01/24 07:48:01;;;;;;;;;;;;;;;21.59;15.95;98816.38;5053575;28;1984;-74
2022/01/24 07:50:26;;;;;;;;;;;;;;;22.19;15.48;98813.91;5054222;28;958;-74
2022/01/24 07:52:52;;;;;;;;;;;;;;;21.96;15.67;98815.44;5053778;28;958;-74
2022/01/24 07:55:18;;;;;;;;;;;;;;;22.00;15.78;98806.88;5054153;28;1007;-73
2022/01/24 07:57:43;;;;;;;;;;;;;;;21.57;15.97;98818.84;5053738;28;990;-74
2022/01/24 08:00:10;;;;;;;;;;;;;;;22.25;15.35;98829.19;5053612;28;1186;-74
2022/01/24 08:02:39;;;;;;;;;;;;;;;22.95;14.90;98832.06;5053521;28;945;-73
2022/01/24 08:05:05;;;;;;;;;;;;;;;22.51;14.94;98833.22;5053593;28;1111;-74
2022/01/24 08:07:30;;;;;;;;;;;;;;;22.02;15.55;98827.06;5054603;28;1007;-73
2022/01/24 08:09:56;;;;;;;;;;;;;;;22.23;15.44;98838.13;5055791;28;1902;-74
2022/01/24 08:12:22;;;;;;;;;;;;;;;23.00;14.69;98827.88;5055814;28;930;-73
2022/01/24 08:14:47;;;;;;;;;;;;;;;22.97;14.59;98818.22;5071225;28;946;-74
2022/01/24 08:17:13;;;;;;;;;;;;;;;22.04;15.39;98821.81;5055323;28;996;-73
2022/01/24 08:19:38;;;;;;;;;;;;;;;22.20;15.36;98821.97;5055690;28;895;-74
2022/01/24 08:22:04;;;;;;;;;;;;;;;22.89;14.85;98833.78;5055890;28;1005;-73
2022/01/24 08:24:30;;;;;;;;;;;;;;;23.29;14.25;98836.66;5055489;28;909;-74
2022/01/24 08:26:55;;;;;;;;;;;;;;;22.52;15.19;98843.31;5055128;28;964;-74
2022/01/24 08:29:20;;;;;;;;;;;;;;;22.06;15.28;98844.84;5055388;28;1906;-73
2022/01/24 08:31:46;;;;;;;;;;;;;;;22.42;15.29;98838.63;5056088;28;939;-74
2022/01/24 08:34:11;;;;;;;;;;;;;;;23.16;14.52;98836.53;5053702;28;1130;-74
2022/01/24 08:36:37;;;;;;;;;;;;;;;23.08;14.55;98835.03;5056101;28;1084;-73
2022/01/24 08:39:07;;;;;;;;;;;;;;;22.48;14.91;98836.91;5055587;28;886;-73
2022/01/24 08:41:47;;;;;;;;;;;;;;;21.93;15.64;98836.13;5055754;28;937;-74
2022/01/24 08:45:44;;;;;;;;;;;;;;;22.73;14.98;98851.47;5052953;28;992;-74
2022/01/24 08:47:16;;;;;;;;;;;;;;;22.80;14.50;98834.31;5053653;28;972;-75
2022/01/24 08:49:42;;;;;;;;;;;;;;;21.38;16.10;98840.09;5053238;28;1980;-74
2022/01/24 08:52:07;;;;;;;;;;;;;;;21.55;15.88;98838.25;5053340;28;972;-75
2022/01/24 08:54:33;;;;;;;;;;;;;;;22.65;14.94;98844.31;5053269;28;1029;-73
2022/01/24 08:56:58;;;;;;;;;;;;;;;23.07;14.58;98851.28;5053536;28;1024;-74
2022/01/24 08:59:24;;;;;;;;;;;;;;;22.32;15.16;98858.22;5053023;28;1094;-74
2022/01/24 09:01:50;;;;;;;;;;;;;;;22.14;15.45;98851.25;5053251;28;913;-74
2022/01/24 09:04:15;;;;;;;;;;;;;;;22.27;15.43;98844.53;5052908;28;1168;-73
2022/01/24 09:06:41;;;;;;;;;;;;;;;23.11;14.38;98854.84;5053171;28;1001;-73
2022/01/24 09:09:06;;;;;;;;;;;;;;;22.68;14.73;98848.31;5052887;28;1902;-74
2022/01/24 09:11:34;;;;;;;;;;;;;;;21.74;15.84;98851.78;5053100;28;921;-74
2022/01/24 09:13:59;;;;;;;;;;;;;;;21.92;15.82;98853.56;5015052;28;1324;-74
2022/01/24 09:16:24;;;;;;;;;;;;;;;22.87;14.71;98854.03;5033328;28;1011;-73
2022/01/24 09:18:50;;;;;;;;;;;;;;;22.88;14.80;98850.00;5032876;28;1012;-74
2022/01/24 09:21:16;;;;;;;;;;;;;;;22.14;15.50;98843.53;5033300;28;994;-74
2022/01/24 09:23:41;;;;;;;;;;;;;;;22.44;15.25;98851.16;5032894;28;935;-74
2022/01/24 09:26:07;;;;;;;;;;;;;;;22.34;15.28;98849.31;5033239;28;1007;-74
2022/01/24 09:28:32;;;;;;;;;;;;;;;23.00;14.81;98844.91;5034461;28;1986;-73
2022/01/24 09:30:58;;;;;;;;;;;;;;;23.18;14.41;98844.59;5036835;28;949;-74
2022/01/24 09:33:23;;;;;;;;;;;;;;;22.54;15.06;98846.56;5036214;28;1185;-74
2022/01/24 09:35:49;;;;;;;;;;;;;;;22.27;15.15;98833.19;5036594;28;1134;-74
2022/01/24 09:38:16;;;;;;;;;;;;;;;21.82;15.56;98841.97;5036152;28;996;-74
2022/01/24 09:40:42;;;;;;;;;;;;;;;22.28;15.41;98829.16;5019598;28;1184;-74
2022/01/24 09:43:07;;;;;;;;;;;;;;;23.00;14.70;98836.41;5036366;28;977;-74
2022/01/24 09:45:32;;;;;;;;;;;;;;;23.15;14.22;98834.91;5036033;28;1162;-73
2022/01/24 09:47:58;;;;;;;;;;;;;;;22.16;15.27;98838.22;5036045;28;1910;-75
2022/01/24 09:50:24;;;;;;;;;;;;;;;22.19;15.13;98831.72;5038204;28;1014;-73
2022/01/24 09:52:49;;;;;;;;;;;;;;;22.44;15.08;98833.34;5058558;28;976;-74
2022/01/24 09:55:15;;;;;;;;;;;;;;;22.99;14.57;98832.78;5056455;28;933;-73
2022/01/24 09:57:41;;;;;;;;;;;;;;;22.51;15.07;98841.72;5058485;28;981;-74
2022/01/24 10:00:08;;;;;;;;;;;;;;;22.20;15.31;98838.97;5056158;28;1294;-73
2022/01/24 10:02:37;;;;;;;;;;;;;;;22.43;14.96;98831.72;5058124;28;938;-74
2022/01/24 10:05:12;;;;;;;;;;;;;;;22.95;14.73;98832.06;5058291;28;963;-74
2022/01/24 10:07:38;;;;;;;;;;;;;;;22.81;14.79;98821.75;5058353;28;1037;-74
2022/01/24 10:10:04;;;;;;;;;;;;;;;22.01;15.26;98822.66;5057969;28;1913;-74
2022/01/24 10:17:51;;;;;;;;;;;;;;;23.17;14.19;98843.78;5077791;28;982;-74
2022/01/24 10:20:30;;;;;;;;;;;;;;;22.27;14.90;98838.84;5076099;28;1026;-73
2022/01/24 10:23:04;;;;;;;;;;;;;;;21.36;16.21;98841.78;5077682;28;962;-74
2022/01/24 10:25:29;;;;;;;;;;;;;;;21.09;16.20;98839.63;5077447;28;934;-74
2022/01/24 10:28:02;;;;;;;;;;;;;;;22.54;14.95;98852.22;5093389;28;924;-74
2022/01/24 10:30:27;;;;;;;;;;;;;;;23.14;14.62;98850.34;5078222;28;939;-73
2022/01/24 10:32:55;;;;;;;;;;;;;;;22.43;15.06;98840.22;5077205;28;1125;-74
2022/01/24 10:35:20;;;;;;;;;;;;;;;21.95;15.56;98849.88;5072498;28;1050;-73
2022/01/24 10:37:49;;;;;;;;;;;;;;;22.39;15.15;98833.84;5077290;28;965;-74
2022/01/24 10:40:45;;;;;;;;;;;;;;;23.12;14.40;98847.13;5076894;28;897;-74
2022/01/24 10:43:17;;;;;;;;;;;;;;;22.53;14.86;98850.59;5075009;28;966;-73
2022/01/24 10:45:45;;;;;;;;;;;;;;;21.80;15.37;98855.72;5077660;28;1177;-73
2022/01/24 10:48:14;;;;;;;;;;;;;;;22.51;15.14;98850.22;5074854;28;1971;-74
2022/01/24 10:50:42;;;;;;;;;;;;;;;23.05;14.26;98864.28;5077399;28;1084;-74
2022/01/24 10:53:12;;;;;;;;;;;;;;;22.76;14.68;98859.13;5077169;28;1093;-74
2022/01/24 10:55:37;;;;;;;;;;;;;;;21.87;15.31;98859.72;5077204;28;923;-74
2022/01/24 10:58:20;;;;;;;;;;;;;;;21.29;16.01;98860.38;5076436;28;1326;-74
2022/01/24 11:00:46;;;;;;;;;;;;;;;21.98;15.29;98858.31;5076737;28;1520;-74
2022/01/24 11:03:16;;;;;;;;;;;;;;;22.62;15.07;98853.69;5076957;28;868;-74
2022/01/24 11:05:43;;;;;;;;;;;;;;;23.29;14.18;98859.38;5076913;28;935;-75
2022/01/24 11:08:09;;;;;;;;;;;;;;;22.77;14.66;98855.03;5076388;28;1905;-74
2022/01/24 11:10:41;;;;;;;;;;;;;;;22.26;15.03;98848.59;5077109;28;857;-74
2022/01/24 11:13:07;;;;;;;;;;;;;;;22.35;15.15;98851.69;5076421;28;1070;-74
2022/01/24 11:15:33;;;;;;;;;;;;;;;21.62;15.83;98860.84;5076647;28;845;-74
2022/01/24 11:17:59;;;;;;;;;;;;;;;22.93;14.36;98856.41;5076624;28;914;-73
2022/01/24 11:20:35;;;;;;;;;;;;;;;23.04;14.38;98846.47;5076820;28;984;-74
2022/01/24 11:23:05;;;;;;;;;;;;;;;23.33;14.24;98857.28;5076656;28;1446;-74
2022/01/24 11:25:34;;;;;;;;;;;;;;;22.28;15.15;98857.50;5077069;28;944;-74
2022/01/24 11:27:59;;;;;;;;;;;;;;;21.89;15.68;98857.25;5073963;28;1909;-74
2022/01/24 11:30:29;;;;;;;;;;;;;;;22.28;15.31;98849.00;5074555;28;1071;-73
2022/01/24 11:32:57;;;;;;;;;;;;;;;22.78;14.35;98802.72;5053988;28;1171;-73
2022/01/24 11:35:33;;;;;;;;;;;;;;;23.00;14.46;98856.28;5054080;28;1053;-73
2022/01/24 11:37:59;;;;;;;;;;;;;;;22.20;15.19;98861.66;5037298;28;955;-73
2022/01/24 11:40:26;;;;;;;;;;;;;;;22.46;14.93;98862.06;5054097;28;1033;-74
2022/01/24 11:42:52;;;;;;;;;;;;;;;22.99;14.35;98857.50;5013758;28;1269;-73
2022/01/24 11:45:32;;;;;;;;;;;;;;;22.99;14.40;98855.47;4981571;28;1016;-74
2022/01/24 11:48:12;;;;;;;;;;;;;;;22.49;14.87;98866.91;5014227;28;1103;-74
2022/01/24 11:50:37;;;;;;;;;;;;;;;22.07;15.38;98852.09;5014156;28;910;-74
2022/01/24 11:53:21;;;;;;;;;;;;;;;22.49;14.88;98862.03;5013371;28;939;-74
2022/01/24 11:55:47;;;;;;;;;;;;;;;22.31;15.21;98858.66;5014243;28;952;-74
2022/01/24 11:58:12;;;;;;;;;;;;;;;22.44;15.05;98865.34;5010691;28;1549;-73
2022/01/24 12:00:39;;;;;;;;;;;;;;;22.62;14.81;98865.03;4994494;28;962;-73
2022/01/24 12:03:20;;;;;;;;;;;;;;;23.32;13.98;98873.50;4994494;28;1045;-74
2022/01/24 12:05:48;;;;;;;;;;;;;;;22.34;15.00;98875.63;4994544;28;967;-74
2022/01/24 12:08:27;;;;;;;;;;;;;;;22.24;15.22;98872.97;5026779;28;1910;-73
2022/01/24 12:10:54;;;;;;;;;;;;;;;22.70;14.67;98871.41;5038362;28;1008;-74
2022/01/24 12:13:26;;;;;;;;;;;;;;;23.28;14.30;98871.97;5053569;28;1014;-74
2022/01/24 12:15:56;;;;;;;;;;;;;;;22.32;14.96;98880.09;5053532;28;968;-74
2022/01/24 12:18:23;;;;;;;;;;;;;;;21.73;15.55;98878.50;5053371;28;1229;-74
2022/01/24 12:20:49;;;;;;;;;;;;;;;22.07;15.40;98886.13;5069182;28;1087;-74
2022/01/24 12:23:19;;;;;;;;;;;;;;;23.26;14.26;98885.78;5075633;28;967;-73
2022/01/24 12:25:52;;;;;;;;;;;;;;;22.66;14.70;98893.34;5076248;28;895;-73
2022/01/24 12:28:18;;;;;;;;;;;;;;;22.28;14.98;98891.53;5075676;28;1906;-73
2022/01/24 12:31:00;;;;;;;;;;;;;;;21.89;15.57;98891.25;5075775;28;945;-74
2022/01/24 12:33:29;;;;;;;;;;;;;;;21.85;15.55;98896.94;5075652;28;1058;-73
2022/01/24 12:35:57;;;;;;;;;;;;;;;22.02;15.26;98895.09;5073830;28;952;-74
2022/01/24 12:38:23;;;;;;;;;;;;;;;21.67;15.62;98897.19;5073538;28;993;-73
2022/01/24 12:40:49;;;;;;;;;;;;;;;21.58;15.51;98906.19;5075505;28;969;-74
2022/01/24 12:43:29;;;;;;;;;;;;;;;22.03;15.23;98903.19;5075665;28;939;-73
2022/01/24 12:48:39;;;;;;;;;;;;;;;22.48;14.83;98913.47;5072847;28;1917;-73
2022/01/24 12:51:04;;;;;;;;;;;;;;;21.93;15.34;98917.50;5073450;28;1078;-74
2022/01/24 12:53:34;;;;;;;;;;;;;;;22.66;14.97;98925.34;5073283;28;1035;-73
2022/01/24 12:56:03;;;;;;;;;;;;;;;23.24;14.26;98928.81;5070616;28;1113;-73
2022/01/24 12:58:38;;;;;;;;;;;;;;;22.72;14.46;98915.13;5072866;28;1049;-74
2022/01/24 13:01:16;;;;;;;;;;;;;;;21.97;15.20;98921.09;5073064;28;923;-74
2022/01/24 13:03:48;;;;;;;;;;;;;;;22.21;15.05;98931.28;5074773;28;1153;-74
2022/01/24 13:06:14;;;;;;;;;;;;;;;22.59;14.86;98923.44;5077084;28;932;-74
2022/01/24 13:08:39;;;;;;;;;;;;;;;21.73;15.57;98935.16;5076688;28;1981;-74
2022/01/24 13:11:09;;;;;;;;;;;;;;;22.43;14.92;98936.66;5074098;28;926;-73
2022/01/24 13:13:40;;;;;;;;;;;;;;;23.12;14.38;98946.50;5076554;28;955;-73
2022/01/24 13:21:43;;;;;;;;;;;;;;;22.08;15.21;98942.38;5076828;28;1239;-73
2022/01/24 13:24:09;;;;;;;;;;;;;;;22.39;15.03;98941.59;5060013;28;1112;-74
2022/01/24 13:26:34;;;;;;;;;;;;;;;22.32;15.01;98943.28;5076434;28;949;-73
2022/01/24 13:29:05;;;;;;;;;;;;;;;21.74;15.44;98945.25;5076149;28;1979;-73
2022/01/24 13:31:31;;;;;;;;;;;;;;;22.16;15.33;98947.97;5076560;28;980;-74
2022/01/24 13:33:57;;;;;;;;;;;;;;;22.35;14.96;98948.09;5076365;28;1079;-74
2022/01/24 13:36:23;;;;;;;;;;;;;;;22.16;15.14;98957.28;5076199;28;1038;-73
2022/01/24 13:38:49;;;;;;;;;;;;;;;21.65;15.45;98949.81;5076080;28;955;-73
2022/01/24 13:41:17;;;;;;;;;;;;;;;21.90;15.60;98960.84;5076261;28;1165;-73
2022/01/24 13:43:45;;;;;;;;;;;;;;;21.80;15.59;98960.53;5076072;28;990;-73
2022/01/24 13:46:14;;;;;;;;;;;;;;;21.32;16.11;98953.00;5076223;28;970;-73
2022/01/24 13:48:42;;;;;;;;;;;;;;;21.74;15.78;98953.75;5059415;28;1906;-73
2022/01/24 13:51:08;;;;;;;;;;;;;;;21.63;15.50;98953.06;5055848;28;1259;-73
2022/01/24 13:53:39;;;;;;;;;;;;;;;21.49;15.82;98968.19;5036109;28;1000;-73
2022/01/24 13:56:15;;;;;;;;;;;;;;;21.46;15.83;98968.25;5036171;28;918;-74
2022/01/24 13:58:40;;;;;;;;;;;;;;;22.04;15.35;98967.13;5035657;28;1025;-73
2022/01/24 14:01:13;;;;;;;;;;;;;;;22.11;15.28;98971.94;5036236;28;1038;-73
2022/01/24 14:03:38;;;;;;;;;;;;;;;21.56;15.89;98975.81;5035775;28;988;-74
2022/01/24 14:06:13;;;;;;;;;;;;;;;21.20;15.58;98979.00;5036239;28;936;-74
2022/01/24 14:08:38;;;;;;;;;;;;;;;21.45;15.91;98983.59;5035835;28;1985;-72
2022/01/24 14:11:13;;;;;;;;;;;;;;;21.09;16.26;98981.13;5036203;28;1063;-74
2022/01/24 14:13:48;;;;;;;;;;;;;;;21.16;15.82;98981.03;5035360;28;1017;-73
2022/01/24 14:16:39;;;;;;;;;;;;;;;21.78;15.73;98985.69;5035375;28;983;-73
2022/01/24 14:19:05;;;;;;;;;;;;;;;22.15;15.18;98988.91;5035295;28;1038;-74
2022/01/24 14:21:30;;;;;;;;;;;;;;;21.36;15.67;98986.16;5042914;28;912;-73
2022/01/24 14:23:55;;;;;;;;;;;;;;;21.24;15.81;99001.56;5075205;28;1084;-74
2022/01/24 14:26:22;;;;;;;;;;;;;;;21.35;16.00;98993.00;5075932;28;951;-73
2022/01/24 14:28:48;;;;;;;;;;;;;;;21.35;15.87;98993.00;5074965;28;1980;-73
2022/01/24 14:31:15;;;;;;;;;;;;;;;21.17;15.89;98996.00;5058791;28;1220;-73
2022/01/24 14:33:41;;;;;;;;;;;;;;;21.45;15.77;98997.75;5074751;28;1031;-74
2022/01/24 14:36:13;;;;;;;;;;;;;;;21.23;15.90;99003.59;5075354;28;917;-73
2022/01/24 14:38:44;;;;;;;;;;;;;;;21.80;15.49;99003.03;5075226;28;1020;-73
2022/01/24 14:41:11;;;;;;;;;;;;;;;21.49;15.36;99009.88;5077566;28;888;-73
2022/01/24 14:46:28;;;;;;;;;;;;;;;20.89;16.37;99011.19;5077558;28;990;-73
2022/01/24 14:48:54;;;;;;;;;;;;;;;21.07;16.10;99011.84;5076928;28;1977;-73
2022/01/24 14:51:23;;;;;;;;;;;;;;;21.29;15.97;99009.63;5074889;28;969;-74
2022/01/24 14:53:54;;;;;;;;;;;;;;;21.81;15.43;99010.34;5074732;28;919;-74
2022/01/24 14:56:19;;;;;;;;;;;;;;;21.48;15.47;99025.25;5073500;28;1526;-74
2022/01/24 14:58:48;;;;;;;;;;;;;;;21.61;15.40;99017.84;5045048;28;1300;-74
2022/01/24 15:01:13;;;;;;;;;;;;;;;21.69;15.47;99013.69;5043311;28;1247;-73
2022/01/24 15:03:40;;;;;;;;;;;;;;;21.93;15.16;99017.47;5025488;28;1233;-73
2022/01/24 15:06:06;;;;;;;;;;;;;;;21.38;15.75;99021.28;5034962;28;907;-74